Time;durP1;ratioP1;P1;durP2;ratioP2;P2;SDS_P1;SDS_P2;PMS_P1;PMS_P2;Temp;Humidity;BMP_temperature;BMP_pressure;BME280_temperature;BME280_humidity;BME280_pressure;Samples;Min_cycle;Max_cycle;Signal;HPM_P1;HPM_P2
2021/04/15 00:00:14;;;;;;;;;;;18.20;48.30;;;;;;5024779;28;20004;-59
2021/04/15 00:02:39;;;;;;;;;;;18.20;48.90;;;;;;5026533;28;20679;-59
2021/04/15 00:05:05;;;;;;;;;;;18.20;48.20;;;;;;5026880;28;19913;-60
2021/04/15 00:07:30;;;;;;;;;;;18.20;48.20;;;;;;5008536;28;19920;-60
2021/04/15 00:09:56;;;;;;;;;;;18.20;48.20;;;;;;5026530;28;19920;-60
2021/04/15 00:12:21;;;;;;;;;;;18.20;48.10;;;;;;5025262;28;20477;-58
2021/04/15 00:14:47;;;;;;;;;;;18.20;48.00;;;;;;5046028;28;19917;-60
2021/04/15 00:17:12;;;;;;;;;;;18.20;48.00;;;;;;5046388;28;19913;-59
2021/04/15 00:19:37;;;;;;;;;;;18.20;48.00;;;;;;5046069;28;19919;-61
2021/04/15 00:22:03;;;;;;;;;;;18.10;48.00;;;;;;5046385;28;20370;-61
2021/04/15 00:24:28;;;;;;;;;;;18.10;48.00;;;;;;5046336;28;20101;-61
2021/04/15 00:26:54;;;;;;;;;;;18.10;48.00;;;;;;5045555;28;19946;-60
2021/04/15 00:29:19;;;;;;;;;;;18.10;48.00;;;;;;5046596;28;19978;-60
2021/04/15 00:31:45;;;;;;;;;;;18.10;48.00;;;;;;5045728;28;20440;-61
2021/04/15 00:34:10;;;;;;;;;;;18.10;48.00;;;;;;5046290;28;19913;-61
2021/04/15 00:36:36;;;;;;;;;;;18.10;48.00;;;;;;5045771;28;19912;-59
2021/04/15 00:39:03;;;;;;;;;;;18.10;48.00;;;;;;5045999;28;19921;-60
2021/04/15 00:41:28;;;;;;;;;;;18.00;48.00;;;;;;5045639;28;19913;-60
2021/04/15 00:43:54;;;;;;;;;;;18.00;48.00;;;;;;5045600;28;20400;-58
2021/04/15 00:46:38;;;;;;;;;;;18.00;48.00;;;;;;5046285;28;19913;-60
2021/04/15 00:49:03;;;;;;;;;;;18.00;48.00;;;;;;5045713;28;19920;-59
2021/04/15 00:51:33;;;;;;;;;;;18.00;48.10;;;;;;5046268;28;19913;-60
2021/04/15 00:54:03;;;;;;;;;;;18.00;48.10;;;;;;5019078;28;20008;-59
2021/04/15 00:56:28;;;;;;;;;;;18.00;48.10;;;;;;5024339;28;20337;-59
2021/04/15 00:58:53;;;;;;;;;;;18.00;48.00;;;;;;5027530;28;19917;-61
2021/04/15 01:01:19;;;;;;;;;;;18.00;48.10;;;;;;5045660;28;20290;-59
2021/04/15 01:03:44;;;;;;;;;;;18.00;48.00;;;;;;5027307;28;20000;-60
2021/04/15 01:06:10;;;;;;;;;;;18.00;48.00;;;;;;5045512;28;19921;-60
2021/04/15 01:08:35;;;;;;;;;;;17.90;48.00;;;;;;5045573;28;20377;-58
2021/04/15 01:11:16;;;;;;;;;;;17.90;48.00;;;;;;5027792;28;19913;-60
2021/04/15 01:13:46;;;;;;;;;;;17.90;47.90;;;;;;5027885;28;19919;-58
2021/04/15 01:16:14;;;;;;;;;;;17.90;48.10;;;;;;5027815;28;20569;-60
2021/04/15 01:18:50;;;;;;;;;;;17.90;48.10;;;;;;5044758;28;19970;-60
2021/04/15 01:21:23;;;;;;;;;;;17.90;48.00;;;;;;5027309;28;19994;-61
2021/04/15 01:24:06;;;;;;;;;;;17.90;48.10;;;;;;5010489;28;19924;-59
2021/04/15 01:26:34;;;;;;;;;;;17.90;47.90;;;;;;5026254;28;19913;-59
2021/04/15 01:29:01;;;;;;;;;;;17.90;48.10;;;;;;5044346;28;20015;-59
2021/04/15 01:31:35;;;;;;;;;;;17.90;48.10;;;;;;5027047;28;20422;-59
2021/04/15 01:34:09;;;;;;;;;;;17.90;48.10;;;;;;5045195;28;19917;-58
2021/04/15 01:36:43;;;;;;;;;;;17.80;48.00;;;;;;5027277;28;20317;-59
2021/04/15 01:39:10;;;;;;;;;;;17.80;48.10;;;;;;5027097;28;20015;-59
2021/04/15 01:41:44;;;;;;;;;;;17.80;48.10;;;;;;5027643;28;19913;-60
2021/04/15 01:44:12;;;;;;;;;;;17.80;48.30;;;;;;5027152;28;19927;-60
2021/04/15 01:46:38;;;;;;;;;;;17.80;48.30;;;;;;5026940;28;19913;-61
2021/04/15 01:49:04;;;;;;;;;;;17.80;48.30;;;;;;5027101;28;19916;-59
2021/04/15 01:51:30;;;;;;;;;;;17.80;48.20;;;;;;5027095;28;19913;-58
2021/04/15 01:53:58;;;;;;;;;;;17.80;48.20;;;;;;5018995;28;19971;-63
2021/04/15 01:56:24;;;;;;;;;;;17.80;48.10;;;;;;5039664;28;20534;-60
2021/04/15 01:58:55;;;;;;;;;;;17.80;48.80;;;;;;5025362;28;19960;-61
2021/04/15 02:01:20;;;;;;;;;;;17.80;48.30;;;;;;5031808;28;20345;-60
2021/04/15 02:03:46;;;;;;;;;;;17.80;48.30;;;;;;5007602;28;19928;-58
2021/04/15 02:06:14;;;;;;;;;;;17.80;48.30;;;;;;5042699;28;19975;-58
2021/04/15 02:08:46;;;;;;;;;;;17.80;48.10;;;;;;5046757;28;19913;-61
2021/04/15 02:11:15;;;;;;;;;;;17.80;48.20;;;;;;5046756;28;19921;-60
2021/04/15 02:13:41;;;;;;;;;;;17.80;48.20;;;;;;5056385;28;19921;-59
2021/04/15 02:16:07;;;;;;;;;;;17.70;48.10;;;;;;5033069;28;19944;-60
2021/04/15 02:18:34;;;;;;;;;;;17.80;48.20;;;;;;5033583;28;20381;-58
2021/04/15 02:21:03;;;;;;;;;;;17.80;48.20;;;;;;5051083;28;19935;-60
2021/04/15 02:23:31;;;;;;;;;;;17.80;48.20;;;;;;5051050;28;19924;-59
2021/04/15 02:25:58;;;;;;;;;;;17.80;48.10;;;;;;5033141;28;19928;-61
2021/04/15 02:28:25;;;;;;;;;;;17.80;48.10;;;;;;5033231;28;19920;-58
2021/04/15 02:31:05;;;;;;;;;;;17.80;48.10;;;;;;5032917;28;20536;-62
2021/04/15 02:33:38;;;;;;;;;;;17.80;48.00;;;;;;5016575;28;20484;-60
2021/04/15 02:36:04;;;;;;;;;;;17.80;48.00;;;;;;5033305;28;20004;-60
2021/04/15 02:38:41;;;;;;;;;;;17.80;47.90;;;;;;5033130;28;20409;-59
2021/04/15 02:41:07;;;;;;;;;;;17.80;47.90;;;;;;5051113;28;19958;-61
2021/04/15 02:43:36;;;;;;;;;;;17.80;48.00;;;;;;5033627;28;19917;-57
2021/04/15 02:46:04;;;;;;;;;;;17.80;47.90;;;;;;5051157;28;19966;-57
2021/04/15 02:48:30;;;;;;;;;;;17.80;47.90;;;;;;5033261;28;19920;-59
2021/04/15 02:50:56;;;;;;;;;;;17.80;47.80;;;;;;5033251;28;19913;-61
2021/04/15 02:53:23;;;;;;;;;;;17.80;47.80;;;;;;5030130;28;20016;-61
2021/04/15 02:55:50;;;;;;;;;;;17.80;47.90;;;;;;5046708;28;19913;-58
2021/04/15 02:58:20;;;;;;;;;;;17.80;47.80;;;;;;5046504;28;20381;-61
2021/04/15 03:00:46;;;;;;;;;;;17.80;47.80;;;;;;5046393;28;19917;-59
2021/04/15 03:03:12;;;;;;;;;;;17.80;47.80;;;;;;5030738;28;20453;-61
2021/04/15 03:05:42;;;;;;;;;;;17.80;47.80;;;;;;5046438;28;19913;-60
2021/04/15 03:08:08;;;;;;;;;;;17.80;47.80;;;;;;5046390;28;19917;-60
2021/04/15 03:10:35;;;;;;;;;;;17.80;48.00;;;;;;5046327;28;20385;-59
2021/04/15 03:13:09;;;;;;;;;;;17.80;48.00;;;;;;5046283;28;19913;-60
2021/04/15 03:15:37;;;;;;;;;;;17.80;47.90;;;;;;5046024;28;20266;-60
2021/04/15 03:18:04;;;;;;;;;;;17.80;48.00;;;;;;5042725;28;20485;-59
2021/04/15 03:20:35;;;;;;;;;;;17.70;47.90;;;;;;5027769;28;19963;-60
2021/04/15 03:23:03;;;;;;;;;;;17.70;48.10;;;;;;5042559;28;19925;-59
2021/04/15 03:25:28;;;;;;;;;;;17.80;48.00;;;;;;5042980;28;20381;-61
2021/04/15 03:27:58;;;;;;;;;;;17.80;48.00;;;;;;5043094;28;19917;-59
2021/04/15 03:30:26;;;;;;;;;;;17.70;48.00;;;;;;5025808;28;20370;-58
2021/04/15 03:33:11;;;;;;;;;;;17.70;47.90;;;;;;5043178;28;20457;-64
2021/04/15 03:35:38;;;;;;;;;;;17.80;48.00;;;;;;5042645;28;19917;-60
2021/04/15 03:38:14;;;;;;;;;;;17.70;47.90;;;;;;5042444;28;19921;-59
2021/04/15 03:40:43;;;;;;;;;;;17.80;47.90;;;;;;5042780;28;19913;-57
2021/04/15 03:43:12;;;;;;;;;;;17.80;47.90;;;;;;5026071;28;20362;-60
2021/04/15 03:45:40;;;;;;;;;;;17.80;47.90;;;;;;5042507;28;20076;-60
2021/04/15 03:48:07;;;;;;;;;;;17.80;47.90;;;;;;5026393;28;19913;-58
2021/04/15 03:50:40;;;;;;;;;;;17.80;47.90;;;;;;5026948;28;20420;-60
2021/04/15 03:53:09;;;;;;;;;;;17.80;47.90;;;;;;5042151;28;20000;-62
2021/04/15 03:55:37;;;;;;;;;;;17.80;47.80;;;;;;5042320;28;19917;-59
2021/04/15 03:58:35;;;;;;;;;;;17.80;47.80;;;;;;5042173;28;20263;-61
2021/04/15 04:01:02;;;;;;;;;;;17.80;47.70;;;;;;4990641;28;19999;-60
2021/04/15 04:03:27;;;;;;;;;;;17.80;47.80;;;;;;5028615;28;19925;-60
2021/04/15 04:06:13;;;;;;;;;;;17.80;47.70;;;;;;5028822;28;19916;-60
2021/04/15 04:08:44;;;;;;;;;;;17.80;47.70;;;;;;5028122;28;20373;-61
2021/04/15 04:11:11;;;;;;;;;;;17.80;47.70;;;;;;5028689;28;19982;-60
2021/04/15 04:13:37;;;;;;;;;;;17.80;48.10;;;;;;5028523;28;19963;-58
2021/04/15 04:16:07;;;;;;;;;;;17.70;47.70;;;;;;5028496;28;19920;-59
2021/04/15 04:18:38;;;;;;;;;;;17.80;47.70;;;;;;5028626;28;19919;-58
2021/04/15 04:21:15;;;;;;;;;;;17.90;47.70;;;;;;5028797;28;19995;-60
2021/04/15 04:23:42;;;;;;;;;;;17.80;47.70;;;;;;5028761;28;19924;-61
2021/04/15 04:26:12;;;;;;;;;;;17.80;47.70;;;;;;5028884;28;19999;-61
2021/04/15 04:28:39;;;;;;;;;;;17.80;47.70;;;;;;5028398;28;19913;-59
2021/04/15 04:31:06;;;;;;;;;;;17.80;47.80;;;;;;5028761;28;20262;-62
2021/04/15 04:33:36;;;;;;;;;;;17.80;47.80;;;;;;5028590;28;19920;-61
2021/04/15 04:36:02;;;;;;;;;;;17.70;47.90;;;;;;5028227;28;20389;-60
2021/04/15 04:38:27;;;;;;;;;;;17.70;48.00;;;;;;5045896;28;19925;-59
2021/04/15 04:40:53;;;;;;;;;;;17.70;48.30;;;;;;5028312;28;20293;-63
2021/04/15 04:43:20;;;;;;;;;;;17.70;48.60;;;;;;5029001;28;20317;-59
2021/04/15 04:45:46;;;;;;;;;;;17.70;49.30;;;;;;5028371;28;20394;-61
2021/04/15 04:48:20;;;;;;;;;;;17.80;49.60;;;;;;5009870;28;21267;-60
2021/04/15 04:50:49;;;;;;;;;;;17.70;49.90;;;;;;5043389;28;19923;-58
2021/04/15 04:53:22;;;;;;;;;;;17.80;50.50;;;;;;5025181;28;20336;-60
2021/04/15 04:55:48;;;;;;;;;;;17.80;50.60;;;;;;5058735;28;19913;-58
2021/04/15 04:58:17;;;;;;;;;;;17.80;50.60;;;;;;5058238;28;19913;-59
2021/04/15 05:00:46;;;;;;;;;;;17.80;50.70;;;;;;5058014;28;20451;-60
2021/04/15 05:03:17;;;;;;;;;;;17.80;50.40;;;;;;5058214;28;20144;-60
2021/04/15 05:05:42;;;;;;;;;;;17.80;50.20;;;;;;5058573;28;22274;-60
2021/04/15 05:08:11;;;;;;;;;;;17.80;49.90;;;;;;5042472;28;19916;-59
2021/04/15 05:10:37;;;;;;;;;;;17.80;49.90;;;;;;5057560;28;19913;-59
2021/04/15 05:13:28;;;;;;;;;;;17.80;49.60;;;;;;5058719;28;19928;-59
2021/04/15 05:15:54;;;;;;;;;;;17.80;50.10;;;;;;5022190;28;20400;-59
2021/04/15 05:18:19;;;;;;;;;;;17.80;49.70;;;;;;5058397;28;19917;-60
2021/04/15 05:20:45;;;;;;;;;;;17.70;50.10;;;;;;5057803;28;20325;-59
2021/04/15 05:23:36;;;;;;;;;;;17.70;50.20;;;;;;5056121;28;19970;-60
2021/04/15 05:26:07;;;;;;;;;;;17.60;50.30;;;;;;5033414;28;20013;-60
2021/04/15 05:28:32;;;;;;;;;;;17.70;50.70;;;;;;5056746;28;20052;-61
2021/04/15 05:30:58;;;;;;;;;;;17.60;51.50;;;;;;5039752;28;19921;-59
2021/04/15 05:33:24;;;;;;;;;;;17.70;51.50;;;;;;5042629;28;19920;-63
2021/04/15 05:36:04;;;;;;;;;;;17.70;51.70;;;;;;5024140;28;19913;-59
2021/04/15 05:38:35;;;;;;;;;;;17.70;51.60;;;;;;5021876;28;19921;-60
2021/04/15 05:41:01;;;;;;;;;;;17.80;52.20;;;;;;5023465;28;19935;-59
2021/04/15 05:43:38;;;;;;;;;;;17.80;51.80;;;;;;5023169;28;20341;-60
2021/04/15 05:46:05;;;;;;;;;;;17.80;51.60;;;;;;5024346;28;19913;-60
2021/04/15 05:48:31;;;;;;;;;;;17.90;51.10;;;;;;5023586;28;19971;-59
2021/04/15 05:50:56;;;;;;;;;;;17.90;50.80;;;;;;5024249;28;19912;-57
2021/04/15 05:53:23;;;;;;;;;;;17.90;50.20;;;;;;5024517;28;19982;-59
2021/04/15 05:55:50;;;;;;;;;;;18.00;49.70;;;;;;5042531;28;19988;-58
2021/04/15 05:58:17;;;;;;;;;;;17.90;49.30;;;;;;5021995;28;19927;-58
2021/04/15 06:00:58;;;;;;;;;;;18.00;48.90;;;;;;5024459;28;19920;-60
2021/04/15 06:03:39;;;;;;;;;;;18.00;48.60;;;;;;5041281;28;19994;-58
2021/04/15 06:06:05;;;;;;;;;;;18.00;48.60;;;;;;5024076;28;20133;-60
2021/04/15 06:08:33;;;;;;;;;;;18.00;48.60;;;;;;5025038;28;20382;-57
2021/04/15 06:11:01;;;;;;;;;;;18.00;48.40;;;;;;5024008;28;19917;-60
2021/04/15 06:13:42;;;;;;;;;;;17.90;48.40;;;;;;5024026;28;19917;-60
2021/04/15 06:16:09;;;;;;;;;;;17.90;48.40;;;;;;5024630;28;19995;-56
2021/04/15 06:18:45;;;;;;;;;;;17.90;48.30;;;;;;5024037;28;19921;-60
2021/04/15 06:21:21;;;;;;;;;;;17.90;48.30;;;;;;5007878;28;20344;-59
2021/04/15 06:23:46;;;;;;;;;;;17.90;48.20;;;;;;5024190;28;19920;-60
2021/04/15 06:26:19;;;;;;;;;;;17.90;48.30;;;;;;5042529;28;19963;-59
2021/04/15 06:28:44;;;;;;;;;;;17.90;48.30;;;;;;5024386;28;19913;-59
2021/04/15 06:31:14;;;;;;;;;;;17.90;48.40;;;;;;5024313;28;19975;-59
2021/04/15 06:33:40;;;;;;;;;;;17.90;48.50;;;;;;5012986;28;19917;-59
2021/04/15 06:36:06;;;;;;;;;;;17.90;48.60;;;;;;5051001;28;19916;-59
2021/04/15 06:38:40;;;;;;;;;;;17.90;48.70;;;;;;5055078;22;19929;-63
2021/04/15 06:41:19;;;;;;;;;;;17.90;48.90;;;;;;4984806;28;19910;-64
2021/04/15 06:43:45;;;;;;;;;;;17.90;49.00;;;;;;4984313;28;19914;-62
2021/04/15 06:46:10;;;;;;;;;;;17.90;49.00;;;;;;4985948;28;19910;-64
2021/04/15 06:48:54;;;;;;;;;;;17.90;48.90;;;;;;4985408;28;19971;-64
2021/04/15 06:51:34;;;;;;;;;;;17.90;49.60;;;;;;4985952;28;20265;-65
2021/04/15 06:54:06;;;;;;;;;;;17.90;48.90;;;;;;4986677;28;19910;-64
2021/04/15 06:56:32;;;;;;;;;;;17.90;48.90;;;;;;4988149;28;19910;-63
2021/04/15 06:59:04;;;;;;;;;;;17.90;48.90;;;;;;4989241;28;19914;-64
2021/04/15 07:01:29;;;;;;;;;;;17.90;48.90;;;;;;4988189;28;19910;-63
2021/04/15 07:04:02;;;;;;;;;;;17.90;48.80;;;;;;4989033;28;19921;-63
2021/04/15 07:06:42;;;;;;;;;;;17.90;48.80;;;;;;4972071;28;19910;-63
2021/04/15 07:09:27;;;;;;;;;;;17.90;49.40;;;;;;4987411;28;19922;-63
2021/04/15 07:11:52;;;;;;;;;;;17.90;48.80;;;;;;4988553;28;20265;-63
2021/04/15 07:14:21;;;;;;;;;;;18.00;48.90;;;;;;4989140;28;19932;-63
2021/04/15 07:16:59;;;;;;;;;;;17.90;48.80;;;;;;4988186;28;19913;-64
2021/04/15 07:19:43;;;;;;;;;;;17.90;48.80;;;;;;4987412;28;20359;-64
2021/04/15 07:22:13;;;;;;;;;;;17.90;48.80;;;;;;4989803;28;20347;-63
2021/04/15 07:24:42;;;;;;;;;;;17.90;48.80;;;;;;4987980;28;20612;-63
2021/04/15 07:27:27;;;;;;;;;;;17.90;49.50;;;;;;4988769;28;19914;-62
2021/04/15 07:30:10;;;;;;;;;;;17.90;48.90;;;;;;4988666;28;20471;-64
2021/04/15 07:32:38;;;;;;;;;;;17.90;48.90;;;;;;4987077;28;20645;-63
2021/04/15 07:35:09;;;;;;;;;;;17.90;49.00;;;;;;4986989;28;19914;-63
2021/04/15 07:37:38;;;;;;;;;;;17.90;49.00;;;;;;4986055;28;19926;-64
2021/04/15 07:40:23;;;;;;;;;;;17.90;49.10;;;;;;4984523;28;21402;-65
2021/04/15 07:42:57;;;;;;;;;;;17.90;49.00;;;;;;4986293;28;19925;-63
2021/04/15 07:45:38;;;;;;;;;;;17.90;49.00;;;;;;4986208;28;19925;-64
2021/04/15 07:48:07;;;;;;;;;;;17.90;49.00;;;;;;4984471;28;19956;-63
2021/04/15 07:50:39;;;;;;;;;;;17.90;49.00;;;;;;4985370;28;19914;-65
2021/04/15 07:53:17;;;;;;;;;;;17.90;49.00;;;;;;4984823;28;20627;-65
2021/04/15 07:55:49;;;;;;;;;;;17.80;49.00;;;;;;4984910;28;20187;-63
2021/04/15 07:58:33;;;;;;;;;;;17.90;48.90;;;;;;4984567;28;19918;-64
2021/04/15 08:01:14;;;;;;;;;;;17.90;48.80;;;;;;4986455;28;19922;-64
2021/04/15 08:03:51;;;;;;;;;;;17.90;48.80;;;;;;4983282;28;20805;-65
2021/04/15 08:06:16;;;;;;;;;;;17.80;48.80;;;;;;4968614;28;20300;-64
2021/04/15 08:08:56;;;;;;;;;;;17.90;48.80;;;;;;4985787;28;19924;-65
2021/04/15 08:11:37;;;;;;;;;;;17.90;48.70;;;;;;4985176;28;20037;-62
2021/04/15 08:14:03;;;;;;;;;;;17.90;48.70;;;;;;4984503;28;20458;-66
2021/04/15 08:16:28;;;;;;;;;;;17.90;48.70;;;;;;4985994;28;19972;-65
2021/04/15 08:19:14;;;;;;;;;;;17.90;48.70;;;;;;4986087;28;19945;-64
2021/04/15 08:21:42;;;;;;;;;;;17.90;48.60;;;;;;4985969;28;19914;-65
2021/04/15 08:24:29;;;;;;;;;;;17.90;48.60;;;;;;4985955;28;19924;-64
2021/04/15 08:27:13;;;;;;;;;;;17.90;48.60;;;;;;4984434;28;20277;-63
2021/04/15 08:29:57;;;;;;;;;;;17.90;48.60;;;;;;4985728;28;20396;-62
2021/04/15 08:32:28;;;;;;;;;;;17.90;48.50;;;;;;4985597;28;19914;-63
2021/04/15 08:35:12;;;;;;;;;;;17.90;48.50;;;;;;4985663;28;20562;-64
2021/04/15 08:37:37;;;;;;;;;;;17.90;48.40;;;;;;4985655;28;20376;-65
2021/04/15 08:40:22;;;;;;;;;;;17.90;48.30;;;;;;4985216;28;20005;-63
2021/04/15 08:42:51;;;;;;;;;;;17.90;48.30;;;;;;4983801;28;19932;-63
2021/04/15 08:45:26;;;;;;;;;;;17.90;48.30;;;;;;4985552;28;19964;-64
2021/04/15 08:48:00;;;;;;;;;;;17.90;48.30;;;;;;4985414;28;20277;-63
2021/04/15 08:50:31;;;;;;;;;;;17.90;48.30;;;;;;4983841;28;19972;-64
2021/04/15 08:52:56;;;;;;;;;;;17.90;48.30;;;;;;4984192;28;19918;-64
2021/04/15 08:55:24;;;;;;;;;;;17.90;48.20;;;;;;4985553;28;19930;-64
2021/04/15 08:58:09;;;;;;;;;;;17.90;48.20;;;;;;4984659;28;20469;-64
2021/04/15 09:00:34;;;;;;;;;;;17.90;48.20;;;;;;4984954;28;19914;-63
2021/04/15 09:03:18;;;;;;;;;;;17.90;48.10;;;;;;4985550;28;19968;-64
2021/04/15 09:06:07;;;;;;;;;;;17.90;48.20;;;;;;4983608;28;20431;-65
2021/04/15 09:08:38;;;;;;;;;;;17.90;48.10;;;;;;4983487;28;19990;-66
2021/04/15 09:11:11;;;;;;;;;;;17.90;48.20;;;;;;4983511;28;20384;-63
2021/04/15 09:13:43;;;;;;;;;;;17.90;48.20;;;;;;4983123;28;20573;-63
2021/04/15 09:16:20;;;;;;;;;;;17.90;48.10;;;;;;4983796;28;20439;-64
2021/04/15 09:18:51;;;;;;;;;;;17.90;48.10;;;;;;4983068;28;20016;-63
2021/04/15 09:21:17;;;;;;;;;;;17.90;48.10;;;;;;4984787;28;19918;-64
2021/04/15 09:23:46;;;;;;;;;;;17.90;48.10;;;;;;4983417;28;20406;-63
2021/04/15 09:26:21;;;;;;;;;;;17.90;48.10;;;;;;4983717;28;20412;-64
2021/04/15 09:29:05;;;;;;;;;;;17.90;48.00;;;;;;4984404;28;20022;-64
2021/04/15 09:31:30;;;;;;;;;;;17.90;48.00;;;;;;4984355;28;19997;-66
2021/04/15 09:33:59;;;;;;;;;;;17.90;48.00;;;;;;4984813;28;20061;-64
2021/04/15 09:36:43;;;;;;;;;;;17.90;48.10;;;;;;4983351;28;19949;-65
2021/04/15 09:39:12;;;;;;;;;;;17.90;48.00;;;;;;4983887;28;20556;-62
2021/04/15 09:41:50;;;;;;;;;;;17.90;48.00;;;;;;4983076;28;19914;-64
2021/04/15 09:44:20;;;;;;;;;;;17.90;48.00;;;;;;4966239;28;19948;-66
2021/04/15 09:46:51;;;;;;;;;;;17.90;48.10;;;;;;4984773;28;19921;-64
2021/04/15 09:49:16;;;;;;;;;;;17.90;48.00;;;;;;4982642;28;19925;-62
2021/04/15 09:51:46;;;;;;;;;;;17.90;48.00;;;;;;4984333;28;19918;-63
2021/04/15 09:54:30;;;;;;;;;;;17.90;48.00;;;;;;4983564;28;19949;-64
2021/04/15 09:56:57;;;;;;;;;;;17.90;48.00;;;;;;4984949;28;19922;-65
2021/04/15 09:59:26;;;;;;;;;;;17.90;48.00;;;;;;4983164;28;20495;-64
2021/04/15 10:01:54;;;;;;;;;;;17.90;48.00;;;;;;4985098;28;19964;-64
2021/04/15 10:04:23;;;;;;;;;;;17.90;47.90;;;;;;4985410;28;20000;-64
2021/04/15 10:06:50;;;;;;;;;;;17.90;47.90;;;;;;4985737;28;19917;-63
2021/04/15 10:09:23;;;;;;;;;;;17.90;47.90;;;;;;4982890;28;20712;-64
2021/04/15 10:11:48;;;;;;;;;;;17.90;47.90;;;;;;4983037;28;19914;-63
2021/04/15 10:14:15;;;;;;;;;;;17.90;47.90;;;;;;4984353;28;19914;-64
2021/04/15 10:16:47;;;;;;;;;;;17.90;47.90;;;;;;4983847;28;19918;-65
2021/04/15 10:19:32;;;;;;;;;;;17.90;47.90;;;;;;4983879;28;19918;-64
2021/04/15 10:22:16;;;;;;;;;;;17.90;47.80;;;;;;4984197;28;19993;-63
2021/04/15 10:24:41;;;;;;;;;;;17.90;47.80;;;;;;4983761;28;19921;-61
2021/04/15 10:27:09;;;;;;;;;;;17.90;47.80;;;;;;4985700;28;19925;-63
2021/04/15 10:29:53;;;;;;;;;;;17.90;47.80;;;;;;4988051;28;19914;-62
2021/04/15 10:32:38;;;;;;;;;;;17.90;47.70;;;;;;4986839;28;19914;-64
2021/04/15 10:35:23;;;;;;;;;;;17.90;47.70;;;;;;4987722;28;19989;-64
2021/04/15 10:37:48;;;;;;;;;;;17.90;47.70;;;;;;4986772;28;21768;-64
2021/04/15 10:40:13;;;;;;;;;;;17.90;47.70;;;;;;4987762;28;19921;-64
2021/04/15 10:42:51;;;;;;;;;;;17.90;47.70;;;;;;4987626;28;20024;-65
2021/04/15 10:45:16;;;;;;;;;;;17.90;47.70;;;;;;4987688;28;19918;-63
2021/04/15 10:48:01;;;;;;;;;;;17.90;47.70;;;;;;4986815;28;20274;-63
2021/04/15 10:50:26;;;;;;;;;;;17.90;47.60;;;;;;4987109;28;19914;-64
2021/04/15 10:52:54;;;;;;;;;;;17.90;47.70;;;;;;4987865;28;19952;-64
2021/04/15 10:55:21;;;;;;;;;;;17.90;47.60;;;;;;4987177;28;20268;-63
2021/04/15 10:57:47;;;;;;;;;;;17.90;47.70;;;;;;4985924;28;19917;-64
2021/04/15 11:00:18;;;;;;;;;;;17.90;47.60;;;;;;4985635;28;19968;-64
2021/04/15 11:02:54;;;;;;;;;;;17.90;47.60;;;;;;4987110;28;19922;-63
2021/04/15 11:05:21;;;;;;;;;;;17.90;47.60;;;;;;4987186;28;20607;-63
2021/04/15 11:07:46;;;;;;;;;;;17.90;47.70;;;;;;4985423;28;19977;-63
2021/04/15 11:10:17;;;;;;;;;;;17.90;47.70;;;;;;4986887;28;19984;-64
2021/04/15 11:12:43;;;;;;;;;;;17.90;47.60;;;;;;4985404;28;19921;-64
2021/04/15 11:15:10;;;;;;;;;;;17.90;47.60;;;;;;4985657;28;20347;-63
2021/04/15 11:17:42;;;;;;;;;;;17.90;47.60;;;;;;4987054;28;20411;-64
2021/04/15 11:20:14;;;;;;;;;;;17.90;47.50;;;;;;4987155;28;19914;-63
2021/04/15 11:22:40;;;;;;;;;;;17.90;47.60;;;;;;4987151;28;19918;-64
2021/04/15 11:25:13;;;;;;;;;;;17.90;47.60;;;;;;4985453;28;19920;-65
2021/04/15 11:27:38;;;;;;;;;;;17.90;48.20;;;;;;4988165;28;19976;-63
2021/04/15 11:30:04;;;;;;;;;;;17.90;47.50;;;;;;4988002;28;19914;-63
2021/04/15 11:32:30;;;;;;;;;;;17.90;47.50;;;;;;4987066;28;21434;-64
2021/04/15 11:35:03;;;;;;;;;;;17.90;47.40;;;;;;4986920;28;20001;-63
2021/04/15 11:37:29;;;;;;;;;;;17.90;47.50;;;;;;4985314;28;19918;-63
2021/04/15 11:40:12;;;;;;;;;;;17.90;47.40;;;;;;4984247;28;20000;-63
2021/04/15 11:42:37;;;;;;;;;;;17.90;47.50;;;;;;4985403;28;19922;-63
2021/04/15 11:45:04;;;;;;;;;;;17.90;47.50;;;;;;4985172;28;20372;-64
2021/04/15 11:47:30;;;;;;;;;;;17.90;47.50;;;;;;4985011;28;19964;-63
2021/04/15 11:50:09;;;;;;;;;;;17.90;47.40;;;;;;4984689;28;19917;-64
2021/04/15 11:52:35;;;;;;;;;;;17.90;47.50;;;;;;4984940;28;19921;-63
2021/04/15 11:55:06;;;;;;;;;;;17.90;47.40;;;;;;4984986;28;19922;-64
2021/04/15 11:57:32;;;;;;;;;;;17.90;47.50;;;;;;4986513;28;19921;-64
2021/04/15 11:59:59;;;;;;;;;;;17.90;47.40;;;;;;4986109;28;19966;-64
2021/04/15 12:02:47;;;;;;;;;;;17.90;47.40;;;;;;4986439;28;19976;-63
2021/04/15 12:05:18;;;;;;;;;;;17.90;47.40;;;;;;4985639;28;20439;-64
2021/04/15 12:07:45;;;;;;;;;;;17.90;47.40;;;;;;4985931;28;19957;-63
2021/04/15 12:10:11;;;;;;;;;;;17.90;47.30;;;;;;4984470;28;19969;-64
2021/04/15 12:12:37;;;;;;;;;;;17.90;47.30;;;;;;4986501;28;19913;-63
2021/04/15 12:15:04;;;;;;;;;;;17.80;47.30;;;;;;4984340;28;20000;-63
2021/04/15 12:17:35;;;;;;;;;;;17.90;47.30;;;;;;4984333;28;20399;-66
2021/04/15 12:20:08;;;;;;;;;;;17.90;47.30;;;;;;4985731;28;19980;-64
2021/04/15 12:22:35;;;;;;;;;;;17.90;47.40;;;;;;4983878;28;21231;-64
2021/04/15 12:25:02;;;;;;;;;;;17.80;47.30;;;;;;4985384;28;19922;-64
2021/04/15 12:27:28;;;;;;;;;;;17.80;47.30;;;;;;4984344;28;19914;-64
2021/04/15 12:30:03;;;;;;;;;;;17.80;47.30;;;;;;4983981;28;19917;-65
2021/04/15 12:32:29;;;;;;;;;;;17.80;47.30;;;;;;4984468;28;19914;-64
2021/04/15 12:35:14;;;;;;;;;;;17.90;47.30;;;;;;4985623;28;19917;-65
2021/04/15 12:37:42;;;;;;;;;;;17.80;47.30;;;;;;4984270;28;20479;-65
2021/04/15 12:40:12;;;;;;;;;;;17.80;47.30;;;;;;4985373;28;19937;-64
2021/04/15 12:42:37;;;;;;;;;;;17.80;47.20;;;;;;4985039;28;19921;-65
2021/04/15 12:45:04;;;;;;;;;;;17.80;47.20;;;;;;4987549;28;20380;-64
2021/04/15 12:47:31;;;;;;;;;;;17.80;47.20;;;;;;4984722;28;19924;-66
2021/04/15 12:49:56;;;;;;;;;;;17.90;47.30;;;;;;4983589;28;20354;-66
2021/04/15 12:52:22;;;;;;;;;;;17.90;47.30;;;;;;4984034;28;19914;-65
2021/04/15 12:54:47;;;;;;;;;;;17.80;47.20;;;;;;4983314;28;19959;-63
2021/04/15 12:57:13;;;;;;;;;;;17.90;47.30;;;;;;4985621;28;19914;-65
2021/04/15 12:59:40;;;;;;;;;;;17.80;47.20;;;;;;4983420;28;20348;-64
2021/04/15 13:02:10;;;;;;;;;;;17.80;47.20;;;;;;4984097;28;19949;-65
2021/04/15 13:04:35;;;;;;;;;;;17.90;47.30;;;;;;4983478;28;20013;-64
2021/04/15 13:07:00;;;;;;;;;;;17.90;47.20;;;;;;4985052;28;19984;-63
2021/04/15 13:09:33;;;;;;;;;;;17.80;47.10;;;;;;4984804;28;19921;-64
2021/04/15 13:11:58;;;;;;;;;;;17.90;47.20;;;;;;4983967;28;19949;-66
2021/04/15 13:14:37;;;;;;;;;;;17.80;47.20;;;;;;4983591;28;19925;-65
2021/04/15 13:17:03;;;;;;;;;;;17.90;47.30;;;;;;4983450;28;19924;-65
2021/04/15 13:19:29;;;;;;;;;;;17.90;47.30;;;;;;4983240;28;20383;-65
2021/04/15 13:22:24;;;;;;;;;;;17.80;47.10;;;;;;4984785;28;20000;-66
2021/04/15 13:24:50;;;;;;;;;;;17.80;47.10;;;;;;4978980;28;19918;-66
2021/04/15 13:30:06;;;;;;;;;;;17.80;47.10;;;;;;4984069;28;20412;-65
2021/04/15 13:32:51;;;;;;;;;;;17.80;47.10;;;;;;4967425;28;19929;-63
2021/04/15 13:35:18;;;;;;;;;;;17.80;47.10;;;;;;4984302;28;20066;-66
2021/04/15 13:37:44;;;;;;;;;;;17.90;47.10;;;;;;4984822;28;19988;-66
2021/04/15 13:40:30;;;;;;;;;;;17.80;47.10;;;;;;4984793;28;19917;-65
2021/04/15 13:42:55;;;;;;;;;;;17.80;47.10;;;;;;4982958;28;20028;-64
2021/04/15 13:45:36;;;;;;;;;;;17.80;47.10;;;;;;4983554;28;19921;-66
2021/04/15 13:48:01;;;;;;;;;;;17.80;47.10;;;;;;4984518;28;19949;-66
2021/04/15 13:50:45;;;;;;;;;;;17.80;47.10;;;;;;4984392;28;20299;-65
2021/04/15 13:53:29;;;;;;;;;;;17.80;47.10;;;;;;4984775;28;19989;-65
2021/04/15 13:55:55;;;;;;;;;;;17.80;47.10;;;;;;4984386;28;19914;-66
2021/04/15 13:58:39;;;;;;;;;;;17.80;47.10;;;;;;4983211;28;19936;-65
2021/04/15 14:01:25;;;;;;;;;;;17.80;47.00;;;;;;4982775;28;19918;-65
2021/04/15 14:03:50;;;;;;;;;;;17.90;47.10;;;;;;4981910;28;20101;-66
2021/04/15 14:06:22;;;;;;;;;;;17.80;47.10;;;;;;4982993;28;20307;-64
2021/04/15 14:09:08;;;;;;;;;;;17.80;47.10;;;;;;4982576;28;20118;-66
2021/04/15 14:11:35;;;;;;;;;;;17.80;47.10;;;;;;4983287;28;19914;-66
2021/04/15 14:14:01;;;;;;;;;;;17.80;47.10;;;;;;4983739;28;20010;-66
2021/04/15 14:16:26;;;;;;;;;;;17.80;47.10;;;;;;4982870;28;19921;-65
2021/04/15 14:18:58;;;;;;;;;;;17.80;47.10;;;;;;4982240;28;19914;-66
2021/04/15 14:21:28;;;;;;;;;;;17.80;47.10;;;;;;4982300;28;19918;-66
2021/04/15 14:24:05;;;;;;;;;;;17.80;47.10;;;;;;4982172;28;19929;-64
2021/04/15 14:26:34;;;;;;;;;;;17.80;47.10;;;;;;4982469;28;20000;-65
2021/04/15 14:29:16;;;;;;;;;;;17.90;47.10;;;;;;4982026;28;19913;-66
2021/04/15 14:31:43;;;;;;;;;;;17.80;47.00;;;;;;4983582;28;20484;-66
2021/04/15 14:34:17;;;;;;;;;;;17.80;47.00;;;;;;4983246;28;19914;-66
2021/04/15 14:36:43;;;;;;;;;;;17.80;47.00;;;;;;4983829;28;19913;-66
2021/04/15 14:39:12;;;;;;;;;;;17.80;47.10;;;;;;4981778;28;20618;-66